Wolfpit, Kentucky
Current Conditions -  °F | °C
As of 1:55 PM on Thursday 23 Oct 2014 (Local Time) from KPBX Reporting Station
Overcast Overcast  
Wind Chill: 51°   Ceiling: 2700
Heat Index: 51°   Visibility: 10mi
Dew Point: 41°   Wind: 6mph
Humidity: 68%   Direction: 10°N
Pressure: 30.18"   Gusts: NA
Location:  37.3089°N, 82.3418°W
Report Text: KPBX 231755Z AUTO 01005KT 10SM OVC027 11/05 A3018 RMK AO2 T01060049 10110 20067
Loading
Personal Weather Stations






























Interactive Weather Map
Tropical Storm Tracking
New forecast layout! Learn more

10-Day Weather Forecast

Advertisements
Track Severe Weather on mobile